sensor_id;sensor_type;location;lat;lon;timestamp;temperature;humidity
31695;DHT22;18289;51.330;4.946;2023-03-01T00:01:13;0.30;99.90
31695;DHT22;18289;51.330;4.946;2023-03-01T00:03:39;0.40;99.90
31695;DHT22;18289;51.330;4.946;2023-03-01T00:06:05;0.50;99.90
31695;DHT22;18289;51.330;4.946;2023-03-01T00:08:31;0.30;99.90
31695;DHT22;18289;51.330;4.946;2023-03-01T00:11:17;0.40;99.90
31695;DHT22;18289;51.330;4.946;2023-03-01T00:13:44;0.30;99.90
31695;DHT22;18289;51.330;4.946;2023-03-01T00:16:13;0.30;99.90
31695;DHT22;18289;51.330;4.946;2023-03-01T00:18:40;0.30;99.90
31695;DHT22;18289;51.330;4.946;2023-03-01T00:21:06;0.40;99.90
31695;DHT22;18289;51.330;4.946;2023-03-01T00:23:34;0.30;99.90
31695;DHT22;18289;51.330;4.946;2023-03-01T00:25:59;0.30;99.90
31695;DHT22;18289;51.330;4.946;2023-03-01T00:28:25;0.30;99.90
31695;DHT22;18289;51.330;4.946;2023-03-01T00:30:51;0.30;99.90
31695;DHT22;18289;51.330;4.946;2023-03-01T00:33:17;0.20;99.90
31695;DHT22;18289;51.330;4.946;2023-03-01T00:35:43;0.40;99.90
31695;DHT22;18289;51.330;4.946;2023-03-01T00:38:08;0.40;99.90
31695;DHT22;18289;51.330;4.946;2023-03-01T00:40:35;0.30;99.90
31695;DHT22;18289;51.330;4.946;2023-03-01T00:43:01;0.30;99.90
31695;DHT22;18289;51.330;4.946;2023-03-01T00:45:28;0.30;99.90
31695;DHT22;18289;51.330;4.946;2023-03-01T00:47:53;0.40;99.90
31695;DHT22;18289;51.330;4.946;2023-03-01T00:50:20;0.40;99.90
31695;DHT22;18289;51.330;4.946;2023-03-01T00:52:46;0.50;99.90
31695;DHT22;18289;51.330;4.946;2023-03-01T00:55:12;0.20;99.90
31695;DHT22;18289;51.330;4.946;2023-03-01T00:57:38;0.20;99.90
31695;DHT22;18289;51.330;4.946;2023-03-01T01:00:05;0.40;99.90
31695;DHT22;18289;51.330;4.946;2023-03-01T01:02:34;0.20;99.90
31695;DHT22;18289;51.330;4.946;2023-03-01T01:05:00;0.10;99.90
31695;DHT22;18289;51.330;4.946;2023-03-01T01:07:26;0.20;99.90
31695;DHT22;18289;51.330;4.946;2023-03-01T01:09:52;0.20;99.90
31695;DHT22;18289;51.330;4.946;2023-03-01T01:12:17;0.30;99.90
31695;DHT22;18289;51.330;4.946;2023-03-01T01:14:43;0.10;99.90
31695;DHT22;18289;51.330;4.946;2023-03-01T01:17:09;0.00;99.90
31695;DHT22;18289;51.330;4.946;2023-03-01T01:19:35;0.00;99.90
31695;DHT22;18289;51.330;4.946;2023-03-01T01:22:00;-0.10;99.90
31695;DHT22;18289;51.330;4.946;2023-03-01T01:24:26;0.00;99.90
31695;DHT22;18289;51.330;4.946;2023-03-01T01:26:52;0.00;99.90
31695;DHT22;18289;51.330;4.946;2023-03-01T01:29:17;-0.30;99.90
31695;DHT22;18289;51.330;4.946;2023-03-01T01:31:43;-0.20;99.90
31695;DHT22;18289;51.330;4.946;2023-03-01T01:34:14;-0.30;99.90
31695;DHT22;18289;51.330;4.946;2023-03-01T01:36:40;-0.20;99.90
31695;DHT22;18289;51.330;4.946;2023-03-01T01:39:06;-0.40;99.90
31695;DHT22;18289;51.330;4.946;2023-03-01T01:41:33;-0.20;99.90
31695;DHT22;18289;51.330;4.946;2023-03-01T01:44:20;-0.40;99.90
31695;DHT22;18289;51.330;4.946;2023-03-01T01:47:24;-0.50;99.90
31695;DHT22;18289;51.330;4.946;2023-03-01T01:49:57;-0.50;99.90
31695;DHT22;18289;51.330;4.946;2023-03-01T01:52:26;-0.40;99.90
31695;DHT22;18289;51.330;4.946;2023-03-01T01:57:40;-0.50;99.90
31695;DHT22;18289;51.330;4.946;2023-03-01T02:00:17;-0.60;99.90
31695;DHT22;18289;51.330;4.946;2023-03-01T02:02:45;-0.60;99.90
31695;DHT22;18289;51.330;4.946;2023-03-01T02:07:48;-0.60;99.90
31695;DHT22;18289;51.330;4.946;2023-03-01T02:10:15;-0.50;99.90
31695;DHT22;18289;51.330;4.946;2023-03-01T02:12:41;-0.70;99.90
31695;DHT22;18289;51.330;4.946;2023-03-01T02:15:07;-0.70;99.90
31695;DHT22;18289;51.330;4.946;2023-03-01T02:17:33;-0.60;99.90
31695;DHT22;18289;51.330;4.946;2023-03-01T02:22:33;-0.60;99.90
31695;DHT22;18289;51.330;4.946;2023-03-01T02:27:38;-0.60;99.90
31695;DHT22;18289;51.330;4.946;2023-03-01T02:30:06;-0.60;99.90
31695;DHT22;18289;51.330;4.946;2023-03-01T02:32:34;-0.60;99.90
31695;DHT22;18289;51.330;4.946;2023-03-01T02:35:00;-0.60;99.90
31695;DHT22;18289;51.330;4.946;2023-03-01T02:37:27;-0.70;99.90
31695;DHT22;18289;51.330;4.946;2023-03-01T02:39:58;-0.60;99.90
31695;DHT22;18289;51.330;4.946;2023-03-01T02:42:28;-0.70;99.90
31695;DHT22;18289;51.330;4.946;2023-03-01T02:44:56;-0.50;99.90
31695;DHT22;18289;51.330;4.946;2023-03-01T02:47:21;-0.70;99.90
31695;DHT22;18289;51.330;4.946;2023-03-01T02:49:47;-0.50;99.90
31695;DHT22;18289;51.330;4.946;2023-03-01T02:55:14;-0.60;99.90
31695;DHT22;18289;51.330;4.946;2023-03-01T02:57:43;-0.60;99.90
31695;DHT22;18289;51.330;4.946;2023-03-01T03:00:13;-0.60;99.90
31695;DHT22;18289;51.330;4.946;2023-03-01T03:02:49;-0.60;99.90
31695;DHT22;18289;51.330;4.946;2023-03-01T03:05:22;-0.50;99.90
31695;DHT22;18289;51.330;4.946;2023-03-01T03:07:49;-0.60;99.90
31695;DHT22;18289;51.330;4.946;2023-03-01T03:10:19;-0.50;99.90
31695;DHT22;18289;51.330;4.946;2023-03-01T03:12:56;-0.60;99.90
31695;DHT22;18289;51.330;4.946;2023-03-01T03:15:22;-0.60;99.90
31695;DHT22;18289;51.330;4.946;2023-03-01T03:17:50;-0.50;99.90
31695;DHT22;18289;51.330;4.946;2023-03-01T03:20:18;-0.60;99.90
31695;DHT22;18289;51.330;4.946;2023-03-01T03:22:47;-0.60;99.90
31695;DHT22;18289;51.330;4.946;2023-03-01T03:25:13;-0.50;99.90
31695;DHT22;18289;51.330;4.946;2023-03-01T03:27:42;-0.60;99.90
31695;DHT22;18289;51.330;4.946;2023-03-01T03:30:12;-0.70;99.90
31695;DHT22;18289;51.330;4.946;2023-03-01T03:32:44;-0.60;99.90
31695;DHT22;18289;51.330;4.946;2023-03-01T03:35:26;-0.70;99.90
31695;DHT22;18289;51.330;4.946;2023-03-01T03:37:56;-0.70;99.90
31695;DHT22;18289;51.330;4.946;2023-03-01T03:42:58;-0.80;99.90
31695;DHT22;18289;51.330;4.946;2023-03-01T03:45:24;-0.60;99.90
31695;DHT22;18289;51.330;4.946;2023-03-01T03:47:50;-0.70;99.90
31695;DHT22;18289;51.330;4.946;2023-03-01T03:50:17;-0.70;99.90
31695;DHT22;18289;51.330;4.946;2023-03-01T03:52:43;-0.70;99.90
31695;DHT22;18289;51.330;4.946;2023-03-01T03:55:11;-0.80;99.90
31695;DHT22;18289;51.330;4.946;2023-03-01T03:57:38;-0.70;99.90
31695;DHT22;18289;51.330;4.946;2023-03-01T04:00:06;-0.70;99.90
31695;DHT22;18289;51.330;4.946;2023-03-01T04:02:42;-0.80;99.90
31695;DHT22;18289;51.330;4.946;2023-03-01T04:05:09;-0.80;99.90
31695;DHT22;18289;51.330;4.946;2023-03-01T04:07:36;-0.80;99.90
31695;DHT22;18289;51.330;4.946;2023-03-01T04:10:08;-0.70;99.90
31695;DHT22;18289;51.330;4.946;2023-03-01T04:12:35;-0.90;99.90
31695;DHT22;18289;51.330;4.946;2023-03-01T04:15:05;-0.90;99.90
31695;DHT22;18289;51.330;4.946;2023-03-01T04:17:42;-0.90;99.90
31695;DHT22;18289;51.330;4.946;2023-03-01T04:20:13;-0.70;99.90
31695;DHT22;18289;51.330;4.946;2023-03-01T04:22:43;-0.80;99.90
31695;DHT22;18289;51.330;4.946;2023-03-01T04:25:11;-0.80;99.90
31695;DHT22;18289;51.330;4.946;2023-03-01T04:27:40;-0.80;99.90
31695;DHT22;18289;51.330;4.946;2023-03-01T04:30:11;-0.80;99.90
31695;DHT22;18289;51.330;4.946;2023-03-01T04:32:37;-0.80;99.90
31695;DHT22;18289;51.330;4.946;2023-03-01T04:35:02;-0.70;99.90
31695;DHT22;18289;51.330;4.946;2023-03-01T04:37:28;-0.70;99.90
31695;DHT22;18289;51.330;4.946;2023-03-01T04:39:55;-0.70;99.90
31695;DHT22;18289;51.330;4.946;2023-03-01T04:42:20;-0.60;99.90
31695;DHT22;18289;51.330;4.946;2023-03-01T04:44:46;-0.80;99.90
31695;DHT22;18289;51.330;4.946;2023-03-01T04:47:12;-0.70;99.90
31695;DHT22;18289;51.330;4.946;2023-03-01T04:49:38;-0.70;99.90
31695;DHT22;18289;51.330;4.946;2023-03-01T04:52:04;-0.80;99.90
31695;DHT22;18289;51.330;4.946;2023-03-01T04:54:32;-0.80;99.90
31695;DHT22;18289;51.330;4.946;2023-03-01T04:56:59;-0.60;99.90
31695;DHT22;18289;51.330;4.946;2023-03-01T04:59:25;-0.70;99.90
31695;DHT22;18289;51.330;4.946;2023-03-01T05:01:52;-0.80;99.90
31695;DHT22;18289;51.330;4.946;2023-03-01T05:04:22;-0.80;99.90
31695;DHT22;18289;51.330;4.946;2023-03-01T05:06:48;-0.90;99.90
31695;DHT22;18289;51.330;4.946;2023-03-01T05:09:14;-0.90;99.90
31695;DHT22;18289;51.330;4.946;2023-03-01T05:11:39;-0.80;99.90
31695;DHT22;18289;51.330;4.946;2023-03-01T05:14:06;-0.90;99.90
31695;DHT22;18289;51.330;4.946;2023-03-01T05:16:32;-0.80;99.90
31695;DHT22;18289;51.330;4.946;2023-03-01T05:18:59;-0.80;99.90
31695;DHT22;18289;51.330;4.946;2023-03-01T05:21:25;-0.90;99.90
31695;DHT22;18289;51.330;4.946;2023-03-01T05:23:51;-0.70;99.90
31695;DHT22;18289;51.330;4.946;2023-03-01T05:26:18;-0.80;99.90
31695;DHT22;18289;51.330;4.946;2023-03-01T05:28:45;-0.90;99.90
31695;DHT22;18289;51.330;4.946;2023-03-01T05:31:10;-1.00;99.90
31695;DHT22;18289;51.330;4.946;2023-03-01T05:33:38;-0.90;99.90
31695;DHT22;18289;51.330;4.946;2023-03-01T05:36:05;-0.90;99.90
31695;DHT22;18289;51.330;4.946;2023-03-01T05:38:31;-1.00;99.90
31695;DHT22;18289;51.330;4.946;2023-03-01T05:40:57;-0.90;99.90
31695;DHT22;18289;51.330;4.946;2023-03-01T05:43:23;-1.00;99.90
31695;DHT22;18289;51.330;4.946;2023-03-01T05:45:48;-0.90;99.90
31695;DHT22;18289;51.330;4.946;2023-03-01T05:48:14;-0.80;99.90
31695;DHT22;18289;51.330;4.946;2023-03-01T05:50:42;-0.90;99.90
31695;DHT22;18289;51.330;4.946;2023-03-01T05:53:13;-0.90;99.90
31695;DHT22;18289;51.330;4.946;2023-03-01T05:55:40;-0.90;99.90
31695;DHT22;18289;51.330;4.946;2023-03-01T05:58:12;-1.00;99.90
31695;DHT22;18289;51.330;4.946;2023-03-01T06:00:42;-0.90;99.90
31695;DHT22;18289;51.330;4.946;2023-03-01T06:03:10;-1.00;99.90
31695;DHT22;18289;51.330;4.946;2023-03-01T06:05:36;-0.90;99.90
31695;DHT22;18289;51.330;4.946;2023-03-01T06:08:03;-0.90;99.90
31695;DHT22;18289;51.330;4.946;2023-03-01T06:10:29;-1.10;99.90
31695;DHT22;18289;51.330;4.946;2023-03-01T06:12:55;-1.10;99.90
31695;DHT22;18289;51.330;4.946;2023-03-01T06:15:22;-1.00;99.90
31695;DHT22;18289;51.330;4.946;2023-03-01T06:17:48;-1.10;99.90
31695;DHT22;18289;51.330;4.946;2023-03-01T06:20:17;-1.10;99.90
31695;DHT22;18289;51.330;4.946;2023-03-01T06:22:43;-1.10;99.90
31695;DHT22;18289;51.330;4.946;2023-03-01T06:25:10;-1.10;99.90
31695;DHT22;18289;51.330;4.946;2023-03-01T06:27:36;-1.00;99.90
31695;DHT22;18289;51.330;4.946;2023-03-01T06:30:02;-1.00;99.90
31695;DHT22;18289;51.330;4.946;2023-03-01T06:32:28;-1.10;99.90
31695;DHT22;18289;51.330;4.946;2023-03-01T06:34:54;-1.00;99.90
31695;DHT22;18289;51.330;4.946;2023-03-01T06:37:19;-1.10;99.90
31695;DHT22;18289;51.330;4.946;2023-03-01T06:39:45;-1.10;99.90
31695;DHT22;18289;51.330;4.946;2023-03-01T06:42:11;-1.10;99.90
31695;DHT22;18289;51.330;4.946;2023-03-01T06:44:37;-1.20;99.90
31695;DHT22;18289;51.330;4.946;2023-03-01T06:47:03;-1.20;99.90
31695;DHT22;18289;51.330;4.946;2023-03-01T06:49:29;-1.20;99.90
31695;DHT22;18289;51.330;4.946;2023-03-01T06:51:55;-1.00;99.90
31695;DHT22;18289;51.330;4.946;2023-03-01T06:54:21;-1.10;99.90
31695;DHT22;18289;51.330;4.946;2023-03-01T06:56:48;-1.00;99.90
31695;DHT22;18289;51.330;4.946;2023-03-01T06:59:15;-1.00;99.90
31695;DHT22;18289;51.330;4.946;2023-03-01T07:01:40;-0.90;99.90
31695;DHT22;18289;51.330;4.946;2023-03-01T07:04:06;-0.90;99.90
31695;DHT22;18289;51.330;4.946;2023-03-01T07:06:32;-0.90;99.90
31695;DHT22;18289;51.330;4.946;2023-03-01T07:08:57;-0.80;99.90
31695;DHT22;18289;51.330;4.946;2023-03-01T07:11:23;-0.80;99.90
31695;DHT22;18289;51.330;4.946;2023-03-01T07:13:49;-0.80;99.90
31695;DHT22;18289;51.330;4.946;2023-03-01T07:16:15;-0.70;99.90
31695;DHT22;18289;51.330;4.946;2023-03-01T07:18:41;-0.70;99.90
31695;DHT22;18289;51.330;4.946;2023-03-01T07:21:08;-0.50;99.90
31695;DHT22;18289;51.330;4.946;2023-03-01T07:23:34;-0.50;99.90
31695;DHT22;18289;51.330;4.946;2023-03-01T07:26:00;-0.70;99.90
31695;DHT22;18289;51.330;4.946;2023-03-01T07:28:26;-0.60;99.90
31695;DHT22;18289;51.330;4.946;2023-03-01T07:30:52;-0.60;99.90
31695;DHT22;18289;51.330;4.946;2023-03-01T07:33:18;-0.40;99.90
31695;DHT22;18289;51.330;4.946;2023-03-01T07:35:44;-0.40;99.90
31695;DHT22;18289;51.330;4.946;2023-03-01T07:38:10;-0.20;99.90
31695;DHT22;18289;51.330;4.946;2023-03-01T07:40:36;0.00;99.90
31695;DHT22;18289;51.330;4.946;2023-03-01T07:43:01;0.20;99.90
31695;DHT22;18289;51.330;4.946;2023-03-01T07:45:28;0.50;99.90
31695;DHT22;18289;51.330;4.946;2023-03-01T07:47:55;0.70;99.90
31695;DHT22;18289;51.330;4.946;2023-03-01T07:50:21;0.90;99.90
31695;DHT22;18289;51.330;4.946;2023-03-01T07:52:48;1.10;99.90
31695;DHT22;18289;51.330;4.946;2023-03-01T07:55:15;1.20;99.90
31695;DHT22;18289;51.330;4.946;2023-03-01T07:57:41;1.30;99.90
31695;DHT22;18289;51.330;4.946;2023-03-01T08:00:10;1.60;99.90
31695;DHT22;18289;51.330;4.946;2023-03-01T08:02:36;1.60;99.90
31695;DHT22;18289;51.330;4.946;2023-03-01T08:05:01;1.80;99.90
31695;DHT22;18289;51.330;4.946;2023-03-01T08:07:27;1.90;99.90
31695;DHT22;18289;51.330;4.946;2023-03-01T08:09:53;2.20;99.90
31695;DHT22;18289;51.330;4.946;2023-03-01T08:12:18;2.30;99.90
31695;DHT22;18289;51.330;4.946;2023-03-01T08:14:44;2.40;99.90
31695;DHT22;18289;51.330;4.946;2023-03-01T08:17:10;2.60;99.90
31695;DHT22;18289;51.330;4.946;2023-03-01T08:19:36;2.70;99.90
31695;DHT22;18289;51.330;4.946;2023-03-01T08:22:02;2.90;99.90
31695;DHT22;18289;51.330;4.946;2023-03-01T08:24:28;3.00;99.90
31695;DHT22;18289;51.330;4.946;2023-03-01T08:26:54;3.00;99.90
31695;DHT22;18289;51.330;4.946;2023-03-01T08:29:20;3.20;99.90
31695;DHT22;18289;51.330;4.946;2023-03-01T08:31:47;3.40;99.90
31695;DHT22;18289;51.330;4.946;2023-03-01T08:34:15;3.60;99.90
31695;DHT22;18289;51.330;4.946;2023-03-01T08:36:43;3.80;99.90
31695;DHT22;18289;51.330;4.946;2023-03-01T08:39:11;4.00;99.90
31695;DHT22;18289;51.330;4.946;2023-03-01T08:41:37;4.20;99.90
31695;DHT22;18289;51.330;4.946;2023-03-01T08:44:04;4.20;99.90
31695;DHT22;18289;51.330;4.946;2023-03-01T08:46:33;4.30;99.90
31695;DHT22;18289;51.330;4.946;2023-03-01T08:48:59;4.50;99.90
31695;DHT22;18289;51.330;4.946;2023-03-01T08:51:25;4.80;99.90
31695;DHT22;18289;51.330;4.946;2023-03-01T08:53:52;5.40;99.90
31695;DHT22;18289;51.330;4.946;2023-03-01T08:56:18;5.80;99.90
31695;DHT22;18289;51.330;4.946;2023-03-01T08:58:46;6.10;99.90
31695;DHT22;18289;51.330;4.946;2023-03-01T09:01:15;6.60;99.90
31695;DHT22;18289;51.330;4.946;2023-03-01T09:03:41;7.10;99.90
31695;DHT22;18289;51.330;4.946;2023-03-01T09:06:09;7.60;99.90
31695;DHT22;18289;51.330;4.946;2023-03-01T09:08:40;8.00;99.90
31695;DHT22;18289;51.330;4.946;2023-03-01T09:11:07;8.10;99.90
31695;DHT22;18289;51.330;4.946;2023-03-01T09:13:33;8.20;99.90
31695;DHT22;18289;51.330;4.946;2023-03-01T09:16:00;8.10;99.90
31695;DHT22;18289;51.330;4.946;2023-03-01T09:18:27;8.50;99.90
31695;DHT22;18289;51.330;4.946;2023-03-01T09:20:52;8.80;99.90
31695;DHT22;18289;51.330;4.946;2023-03-01T09:23:20;9.10;99.90
31695;DHT22;18289;51.330;4.946;2023-03-01T09:25:46;9.40;99.90
31695;DHT22;18289;51.330;4.946;2023-03-01T09:28:12;9.20;99.90
31695;DHT22;18289;51.330;4.946;2023-03-01T09:30:38;9.60;99.90
31695;DHT22;18289;51.330;4.946;2023-03-01T09:33:03;9.80;99.90
31695;DHT22;18289;51.330;4.946;2023-03-01T09:35:30;9.80;99.90
31695;DHT22;18289;51.330;4.946;2023-03-01T09:37:55;9.80;99.80
31695;DHT22;18289;51.330;4.946;2023-03-01T09:40:24;10.10;99.50
31695;DHT22;18289;51.330;4.946;2023-03-01T09:43:13;9.40;99.20
31695;DHT22;18289;51.330;4.946;2023-03-01T09:45:43;9.30;99.30
31695;DHT22;18289;51.330;4.946;2023-03-01T09:48:15;9.30;99.00
31695;DHT22;18289;51.330;4.946;2023-03-01T09:50:43;9.30;99.20
31695;DHT22;18289;51.330;4.946;2023-03-01T09:53:31;9.40;98.80
31695;DHT22;18289;51.330;4.946;2023-03-01T09:56:18;9.40;99.90
31695;DHT22;18289;51.330;4.946;2023-03-01T10:01:46;10.00;99.40
31695;DHT22;18289;51.330;4.946;2023-03-01T10:09:40;10.10;98.30
31695;DHT22;18289;51.330;4.946;2023-03-01T10:12:53;9.90;98.10
31695;DHT22;18289;51.330;4.946;2023-03-01T10:15:19;10.00;97.60
31695;DHT22;18289;51.330;4.946;2023-03-01T10:18:35;9.50;97.90
31695;DHT22;18289;51.330;4.946;2023-03-01T10:20:43;9.70;98.90
31695;DHT22;18289;51.330;4.946;2023-03-01T10:23:11;9.80;97.80
31695;DHT22;18289;51.330;4.946;2023-03-01T10:31:18;9.60;96.00
31695;DHT22;18289;51.330;4.946;2023-03-01T10:33:45;9.60;96.20
31695;DHT22;18289;51.330;4.946;2023-03-01T10:36:13;9.60;96.40
31695;DHT22;18289;51.330;4.946;2023-03-01T10:38:57;9.60;96.00
31695;DHT22;18289;51.330;4.946;2023-03-01T10:41:24;10.00;96.00
31695;DHT22;18289;51.330;4.946;2023-03-01T10:43:55;10.20;94.80
31695;DHT22;18289;51.330;4.946;2023-03-01T10:46:35;10.90;95.20
31695;DHT22;18289;51.330;4.946;2023-03-01T10:51:30;11.90;94.50
31695;DHT22;18289;51.330;4.946;2023-03-01T10:53:55;12.40;94.80
31695;DHT22;18289;51.330;4.946;2023-03-01T10:56:21;12.80;95.20
31695;DHT22;18289;51.330;4.946;2023-03-01T10:59:09;13.40;95.10
31695;DHT22;18289;51.330;4.946;2023-03-01T11:01:44;14.60;94.10
31695;DHT22;18289;51.330;4.946;2023-03-01T11:04:12;14.80;91.40
31695;DHT22;18289;51.330;4.946;2023-03-01T11:06:40;15.30;90.40
31695;DHT22;18289;51.330;4.946;2023-03-01T11:09:21;16.10;88.70
31695;DHT22;18289;51.330;4.946;2023-03-01T11:11:59;16.40;89.40
31695;DHT22;18289;51.330;4.946;2023-03-01T11:14:35;16.70;85.50
31695;DHT22;18289;51.330;4.946;2023-03-01T11:17:04;17.60;84.10
31695;DHT22;18289;51.330;4.946;2023-03-01T11:19:30;17.50;82.30
31695;DHT22;18289;51.330;4.946;2023-03-01T11:22:14;17.40;79.90
31695;DHT22;18289;51.330;4.946;2023-03-01T11:24:57;17.30;78.80
31695;DHT22;18289;51.330;4.946;2023-03-01T11:27:32;18.10;82.90
31695;DHT22;18289;51.330;4.946;2023-03-01T11:30:18;17.80;78.30
31695;DHT22;18289;51.330;4.946;2023-03-01T11:35:41;18.60;74.80
31695;DHT22;18289;51.330;4.946;2023-03-01T11:38:21;19.50;75.40
31695;DHT22;18289;51.330;4.946;2023-03-01T11:41:20;19.60;74.00
31695;DHT22;18289;51.330;4.946;2023-03-01T11:46:55;19.70;68.30
31695;DHT22;18289;51.330;4.946;2023-03-01T11:55:11;19.50;70.00
31695;DHT22;18289;51.330;4.946;2023-03-01T11:57:57;19.10;67.90
31695;DHT22;18289;51.330;4.946;2023-03-01T12:08:49;20.80;66.70
31695;DHT22;18289;51.330;4.946;2023-03-01T12:11:45;20.10;65.90
31695;DHT22;18289;51.330;4.946;2023-03-01T12:22:37;20.40;65.70
31695;DHT22;18289;51.330;4.946;2023-03-01T12:33:25;21.10;60.40
31695;DHT22;18289;51.330;4.946;2023-03-01T12:38:48;21.20;60.60
31695;DHT22;18289;51.330;4.946;2023-03-01T12:50:36;20.80;58.60
31695;DHT22;18289;51.330;4.946;2023-03-01T12:52:41;20.60;58.20
31695;DHT22;18289;51.330;4.946;2023-03-01T12:58:03;21.50;60.40
31695;DHT22;18289;51.330;4.946;2023-03-01T13:01:14;21.30;58.80
31695;DHT22;18289;51.330;4.946;2023-03-01T13:09:39;21.90;57.80
31695;DHT22;18289;51.330;4.946;2023-03-01T13:15:32;22.10;59.10
31695;DHT22;18289;51.330;4.946;2023-03-01T13:28:55;21.50;57.40
31695;DHT22;18289;51.330;4.946;2023-03-01T13:33:52;21.20;58.30
31695;DHT22;18289;51.330;4.946;2023-03-01T13:39:29;22.10;55.10
31695;DHT22;18289;51.330;4.946;2023-03-01T13:41:57;21.30;56.20
31695;DHT22;18289;51.330;4.946;2023-03-01T13:44:36;20.60;55.60
31695;DHT22;18289;51.330;4.946;2023-03-01T13:49:59;19.80;56.60
31695;DHT22;18289;51.330;4.946;2023-03-01T13:55:00;19.50;56.80
31695;DHT22;18289;51.330;4.946;2023-03-01T13:57:34;19.20;57.80
31695;DHT22;18289;51.330;4.946;2023-03-01T14:00:06;19.10;56.40
31695;DHT22;18289;51.330;4.946;2023-03-01T14:02:40;18.70;56.50
31695;DHT22;18289;51.330;4.946;2023-03-01T14:05:12;18.60;58.00
31695;DHT22;18289;51.330;4.946;2023-03-01T14:07:40;18.60;56.90
31695;DHT22;18289;51.330;4.946;2023-03-01T14:10:12;19.00;58.50
31695;DHT22;18289;51.330;4.946;2023-03-01T14:15:15;18.60;58.30
31695;DHT22;18289;51.330;4.946;2023-03-01T14:18:04;19.10;57.40
31695;DHT22;18289;51.330;4.946;2023-03-01T14:20:41;18.50;57.80
31695;DHT22;18289;51.330;4.946;2023-03-01T14:23:17;17.70;57.40
31695;DHT22;18289;51.330;4.946;2023-03-01T14:25:59;17.00;58.60
31695;DHT22;18289;51.330;4.946;2023-03-01T14:28:31;17.50;58.00
31695;DHT22;18289;51.330;4.946;2023-03-01T14:34:00;18.40;57.30
31695;DHT22;18289;51.330;4.946;2023-03-01T14:36:31;18.50;57.60
31695;DHT22;18289;51.330;4.946;2023-03-01T14:38:58;18.20;58.90
31695;DHT22;18289;51.330;4.946;2023-03-01T14:41:32;18.10;58.10
31695;DHT22;18289;51.330;4.946;2023-03-01T14:44:02;18.10;57.60
31695;DHT22;18289;51.330;4.946;2023-03-01T14:46:39;18.30;59.00
31695;DHT22;18289;51.330;4.946;2023-03-01T14:49:24;17.60;58.80
31695;DHT22;18289;51.330;4.946;2023-03-01T14:52:04;17.00;59.10
31695;DHT22;18289;51.330;4.946;2023-03-01T14:54:46;17.00;60.00
31695;DHT22;18289;51.330;4.946;2023-03-01T14:57:19;17.40;60.00
31695;DHT22;18289;51.330;4.946;2023-03-01T14:59:54;17.50;59.30
31695;DHT22;18289;51.330;4.946;2023-03-01T15:02:23;17.20;58.90
31695;DHT22;18289;51.330;4.946;2023-03-01T15:04:59;16.90;59.90
31695;DHT22;18289;51.330;4.946;2023-03-01T15:07:30;16.00;61.00
31695;DHT22;18289;51.330;4.946;2023-03-01T15:09:58;16.30;62.40
31695;DHT22;18289;51.330;4.946;2023-03-01T15:14:57;16.60;61.80
31695;DHT22;18289;51.330;4.946;2023-03-01T15:17:40;17.10;59.60
31695;DHT22;18289;51.330;4.946;2023-03-01T15:20:17;17.40;60.90
31695;DHT22;18289;51.330;4.946;2023-03-01T15:22:47;17.70;60.00
31695;DHT22;18289;51.330;4.946;2023-03-01T15:25:18;17.70;60.70
31695;DHT22;18289;51.330;4.946;2023-03-01T15:27:50;18.50;59.50
31695;DHT22;18289;51.330;4.946;2023-03-01T15:30:36;18.40;57.80
31695;DHT22;18289;51.330;4.946;2023-03-01T15:35:58;18.50;58.00
31695;DHT22;18289;51.330;4.946;2023-03-01T15:38:36;18.00;58.60
31695;DHT22;18289;51.330;4.946;2023-03-01T15:41:27;17.40;58.30
31695;DHT22;18289;51.330;4.946;2023-03-01T15:43:56;17.20;59.00
31695;DHT22;18289;51.330;4.946;2023-03-01T15:46:44;16.90;59.60
31695;DHT22;18289;51.330;4.946;2023-03-01T15:52:46;15.70;62.10
31695;DHT22;18289;51.330;4.946;2023-03-01T15:55:20;14.90;63.40
31695;DHT22;18289;51.330;4.946;2023-03-01T15:57:46;15.10;63.00
31695;DHT22;18289;51.330;4.946;2023-03-01T16:00:24;14.60;62.10
31695;DHT22;18289;51.330;4.946;2023-03-01T16:02:52;13.90;63.80
31695;DHT22;18289;51.330;4.946;2023-03-01T16:05:28;13.20;64.50
31695;DHT22;18289;51.330;4.946;2023-03-01T16:07:57;12.80;66.00
31695;DHT22;18289;51.330;4.946;2023-03-01T16:10:23;12.40;67.40
31695;DHT22;18289;51.330;4.946;2023-03-01T16:12:51;12.30;68.20
31695;DHT22;18289;51.330;4.946;2023-03-01T16:15:36;12.10;67.30
31695;DHT22;18289;51.330;4.946;2023-03-01T16:18:03;11.80;66.90
31695;DHT22;18289;51.330;4.946;2023-03-01T16:20:31;11.40;69.40
31695;DHT22;18289;51.330;4.946;2023-03-01T16:23:02;11.00;70.70
31695;DHT22;18289;51.330;4.946;2023-03-01T16:25:29;10.30;71.00
31695;DHT22;18289;51.330;4.946;2023-03-01T16:27:55;10.10;72.30
31695;DHT22;18289;51.330;4.946;2023-03-01T16:30:24;9.80;73.20
31695;DHT22;18289;51.330;4.946;2023-03-01T16:32:52;9.30;74.70
31695;DHT22;18289;51.330;4.946;2023-03-01T16:35:21;8.90;76.00
31695;DHT22;18289;51.330;4.946;2023-03-01T16:37:47;8.60;75.90
31695;DHT22;18289;51.330;4.946;2023-03-01T16:40:28;8.30;77.50
31695;DHT22;18289;51.330;4.946;2023-03-01T16:43:10;7.90;77.40
31695;DHT22;18289;51.330;4.946;2023-03-01T16:45:36;7.70;79.10
31695;DHT22;18289;51.330;4.946;2023-03-01T16:48:28;7.30;80.30
31695;DHT22;18289;51.330;4.946;2023-03-01T16:51:18;7.30;81.90
31695;DHT22;18289;51.330;4.946;2023-03-01T16:54:12;7.00;81.30
31695;DHT22;18289;51.330;4.946;2023-03-01T16:57:02;7.00;82.50
31695;DHT22;18289;51.330;4.946;2023-03-01T17:02:42;6.70;83.90
31695;DHT22;18289;51.330;4.946;2023-03-01T17:05:59;6.70;85.20
31695;DHT22;18289;51.330;4.946;2023-03-01T17:08:30;6.50;85.50
31695;DHT22;18289;51.330;4.946;2023-03-01T17:11:03;6.50;85.50
31695;DHT22;18289;51.330;4.946;2023-03-01T17:13:29;6.40;86.40
31695;DHT22;18289;51.330;4.946;2023-03-01T17:15:55;6.30;87.50
31695;DHT22;18289;51.330;4.946;2023-03-01T17:18:20;6.20;88.50
31695;DHT22;18289;51.330;4.946;2023-03-01T17:20:46;6.10;87.20
31695;DHT22;18289;51.330;4.946;2023-03-01T17:23:17;6.00;89.10
31695;DHT22;18289;51.330;4.946;2023-03-01T17:25:44;5.90;88.40
31695;DHT22;18289;51.330;4.946;2023-03-01T17:28:16;5.80;88.20
31695;DHT22;18289;51.330;4.946;2023-03-01T17:30:44;5.90;88.60
31695;DHT22;18289;51.330;4.946;2023-03-01T17:33:13;5.70;89.00
31695;DHT22;18289;51.330;4.946;2023-03-01T17:35:39;5.70;89.20
31695;DHT22;18289;51.330;4.946;2023-03-01T17:38:05;5.60;90.50
31695;DHT22;18289;51.330;4.946;2023-03-01T17:40:34;5.50;90.40
31695;DHT22;18289;51.330;4.946;2023-03-01T17:43:08;5.30;91.10
31695;DHT22;18289;51.330;4.946;2023-03-01T17:45:37;5.30;91.00
31695;DHT22;18289;51.330;4.946;2023-03-01T17:48:09;5.20;91.00
31695;DHT22;18289;51.330;4.946;2023-03-01T17:50:38;5.20;91.50
31695;DHT22;18289;51.330;4.946;2023-03-01T17:53:10;5.00;91.00
31695;DHT22;18289;51.330;4.946;2023-03-01T17:55:44;5.00;91.40
31695;DHT22;18289;51.330;4.946;2023-03-01T17:58:13;5.00;91.40
31695;DHT22;18289;51.330;4.946;2023-03-01T18:00:48;4.90;91.80
31695;DHT22;18289;51.330;4.946;2023-03-01T18:03:16;4.90;92.00
31695;DHT22;18289;51.330;4.946;2023-03-01T18:05:42;4.80;92.10
31695;DHT22;18289;51.330;4.946;2023-03-01T18:08:10;4.80;92.20